createdAt,value
2023-05-14T00:00:31.350Z,12.65
2023-05-14T00:05:32.791Z,12.64
2023-05-14T00:10:34.520Z,12.59
2023-05-14T00:15:36.121Z,12.51
2023-05-14T00:20:37.871Z,12.53
2023-05-14T00:25:39.320Z,12.49
2023-05-14T00:30:40.831Z,12.47
2023-05-14T00:35:42.259Z,12.51
2023-05-14T00:40:45.790Z,12.55
2023-05-14T00:45:53.799Z,12.56
2023-05-14T00:50:55.429Z,12.56
2023-05-14T00:55:58.593Z,12.61
2023-05-14T01:01:00.115Z,12.66
2023-05-14T01:06:15.524Z,12.70
2023-05-14T01:11:29.193Z,12.66
2023-05-14T01:16:33.358Z,12.57
2023-05-14T01:21:40.945Z,12.54
2023-05-14T01:26:42.459Z,12.55
2023-05-14T01:31:46.541Z,12.63
2023-05-14T01:36:50.202Z,12.69
2023-05-14T01:41:52.685Z,12.72
2023-05-14T01:46:54.162Z,12.66
2023-05-14T01:51:55.661Z,12.50
2023-05-14T01:56:57.130Z,12.49
2023-05-14T02:01:58.808Z,12.36
2023-05-14T02:07:00.487Z,12.21
2023-05-14T02:12:01.972Z,12.14
2023-05-14T02:17:03.691Z,12.12
2023-05-14T02:22:05.371Z,12.03
2023-05-14T02:27:06.808Z,11.93
2023-05-14T02:32:08.307Z,11.89
2023-05-14T02:37:09.816Z,11.81
2023-05-14T02:42:11.292Z,11.71
2023-05-14T02:47:12.805Z,11.72
2023-05-14T02:52:14.261Z,11.59
2023-05-14T02:57:15.685Z,11.57
2023-05-14T03:02:17.311Z,11.60
2023-05-14T03:07:19.262Z,11.66
2023-05-14T03:12:21.104Z,11.66
2023-05-14T03:17:23.005Z,11.62
2023-05-14T03:22:24.468Z,11.60
2023-05-14T03:27:25.866Z,11.57
2023-05-14T03:32:27.465Z,11.55
2023-05-14T03:37:28.956Z,11.56
2023-05-14T03:42:30.479Z,11.55
2023-05-14T03:47:31.938Z,11.45
2023-05-14T03:52:33.382Z,11.55
2023-05-14T03:57:34.824Z,11.59
2023-05-14T04:02:36.371Z,11.70
2023-05-14T04:07:37.869Z,11.91
2023-05-14T04:12:39.321Z,12.03
2023-05-14T04:17:41.199Z,12.11
2023-05-14T04:22:42.672Z,12.19
2023-05-14T04:27:44.121Z,12.34
2023-05-14T04:32:45.594Z,12.45
2023-05-14T04:37:47.274Z,12.53
2023-05-14T04:42:48.671Z,12.45
2023-05-14T04:47:50.101Z,12.55
2023-05-14T04:52:51.546Z,12.75
2023-05-14T04:57:53.029Z,12.98
2023-05-14T05:02:54.600Z,13.23
2023-05-14T05:07:56.147Z,13.28
2023-05-14T05:12:58.646Z,13.43
2023-05-14T05:18:00.581Z,13.75
2023-05-14T05:23:02.073Z,13.80
2023-05-14T05:28:03.646Z,14.00
2023-05-14T05:33:05.287Z,14.39
2023-05-14T05:38:07.378Z,14.65
2023-05-14T05:43:08.800Z,14.65
2023-05-14T05:48:10.284Z,14.44
2023-05-14T05:53:12.463Z,14.30
2023-05-14T05:58:15.784Z,14.43
2023-05-14T06:03:17.283Z,14.49
2023-05-14T06:08:18.931Z,14.68
2023-05-14T06:13:20.424Z,14.89
2023-05-14T06:18:21.879Z,15.15
2023-05-14T06:23:23.359Z,15.12
2023-05-14T06:28:24.793Z,15.25
2023-05-14T06:33:30.829Z,15.21
2023-05-14T06:38:32.822Z,15.71
2023-05-14T06:43:34.229Z,16.50
2023-05-14T06:48:36.460Z,16.69
2023-05-14T06:53:37.961Z,17.35
2023-05-14T06:58:39.377Z,17.47
2023-05-14T07:03:40.901Z,17.79
2023-05-14T07:08:45.973Z,17.83
2023-05-14T07:13:47.473Z,17.86
2023-05-14T07:18:49.003Z,18.20
2023-05-14T07:23:51.035Z,17.90
2023-05-14T07:28:52.641Z,18.21
2023-05-14T07:33:54.056Z,18.26
2023-05-14T07:38:56.115Z,18.27
2023-05-14T07:43:57.601Z,18.56
2023-05-14T07:48:59.028Z,18.55
2023-05-14T07:54:01.007Z,18.57
2023-05-14T07:59:02.415Z,18.73
2023-05-14T08:04:03.958Z,19.00
2023-05-14T08:09:05.487Z,19.11
2023-05-14T08:14:06.920Z,19.45
2023-05-14T08:19:08.500Z,19.68
2023-05-14T08:24:09.998Z,19.57
2023-05-14T08:29:12.841Z,19.16
2023-05-14T08:34:15.746Z,19.26
2023-05-14T08:39:17.192Z,19.50
2023-05-14T08:44:20.564Z,19.57
2023-05-14T08:49:44.920Z,19.58
2023-05-14T08:54:48.151Z,19.91
2023-05-14T08:59:49.593Z,19.96
2023-05-14T09:05:01.550Z,19.88
2023-05-14T09:10:04.022Z,19.64
2023-05-14T09:15:06.559Z,19.54
2023-05-14T09:20:09.624Z,19.71
2023-05-14T09:25:14.690Z,19.46
2023-05-14T09:30:16.272Z,19.28
2023-05-14T09:35:20.779Z,19.13
2023-05-14T09:40:24.328Z,19.26
2023-05-14T09:45:26.337Z,19.07
2023-05-14T09:50:27.761Z,19.74
2023-05-14T09:55:29.403Z,19.64
2023-05-14T10:00:32.934Z,19.50
2023-05-14T10:05:36.554Z,19.82
2023-05-14T10:10:38.643Z,20.06
2023-05-14T10:15:43.630Z,19.66
2023-05-14T10:20:53.285Z,19.54
2023-05-14T10:25:54.868Z,19.52
2023-05-14T10:30:56.459Z,19.91
2023-05-14T10:36:04.469Z,19.96
2023-05-14T10:41:10.883Z,19.40
2023-05-14T10:46:14.078Z,19.44
2023-05-14T10:51:17.466Z,19.43
2023-05-14T10:56:19.486Z,19.71
2023-05-14T11:01:24.108Z,20.33
2023-05-14T11:06:26.811Z,20.62
2023-05-14T11:11:28.340Z,20.80
2023-05-14T11:16:31.267Z,20.90
2023-05-14T11:21:32.959Z,21.01
2023-05-14T11:26:35.822Z,21.12
2023-05-14T11:31:37.365Z,21.16
2023-05-14T11:36:38.985Z,21.53
2023-05-14T11:41:45.125Z,21.58
2023-05-14T11:46:56.657Z,21.63
2023-05-14T11:51:59.367Z,21.90
2023-05-14T11:57:07.858Z,21.73
2023-05-14T12:02:13.209Z,21.83
2023-05-14T12:07:16.457Z,21.57
2023-05-14T12:12:20.415Z,21.35
2023-05-14T12:17:23.209Z,21.37
2023-05-14T12:22:24.736Z,21.42
2023-05-14T12:27:27.730Z,21.54
2023-05-14T12:32:32.188Z,21.73
2023-05-14T12:37:34.160Z,21.87
2023-05-14T12:42:35.942Z,21.95
2023-05-14T12:47:37.752Z,21.98
2023-05-14T12:52:40.080Z,22.14
2023-05-14T12:57:41.855Z,21.60
2023-05-14T13:02:44.060Z,21.73
2023-05-14T13:07:45.803Z,21.37
2023-05-14T13:12:47.286Z,21.32
2023-05-14T13:17:49.046Z,21.62
2023-05-14T13:22:50.665Z,21.94
2023-05-14T13:27:52.110Z,21.80
2023-05-14T13:32:53.532Z,21.88
2023-05-14T13:37:55.002Z,21.49
2023-05-14T13:42:56.485Z,21.66
2023-05-14T13:47:57.993Z,21.67
2023-05-14T13:52:59.537Z,21.84
2023-05-14T13:58:02.360Z,21.72
2023-05-14T14:03:03.943Z,21.18
2023-05-14T14:08:22.046Z,21.40
2023-05-14T14:13:25.147Z,21.33
2023-05-14T14:18:26.805Z,21.36
2023-05-14T14:23:28.344Z,21.33
2023-05-14T14:28:29.919Z,21.12
2023-05-14T14:33:31.417Z,20.97
2023-05-14T14:38:33.021Z,20.92
2023-05-14T14:43:34.608Z,20.36
2023-05-14T14:48:39.873Z,20.70
2023-05-14T14:53:41.415Z,20.82
2023-05-14T14:58:42.921Z,20.87
2023-05-14T15:03:45.644Z,20.84
2023-05-14T15:08:47.338Z,20.88
2023-05-14T15:13:48.920Z,20.88
2023-05-14T15:18:50.546Z,20.70
2023-05-14T15:23:52.400Z,20.86
2023-05-14T15:28:54.036Z,20.79
2023-05-14T15:33:56.121Z,20.55
2023-05-14T15:38:57.862Z,20.46
2023-05-14T15:43:59.356Z,20.29
2023-05-14T15:49:00.799Z,20.36
2023-05-14T15:54:02.338Z,20.44
2023-05-14T15:59:03.792Z,20.22
2023-05-14T16:04:05.414Z,20.28
2023-05-14T16:09:07.047Z,20.15
2023-05-14T16:14:08.445Z,20.02
2023-05-14T16:19:10.061Z,19.95
2023-05-14T16:24:12.754Z,19.90
2023-05-14T16:29:14.256Z,19.72
2023-05-14T16:34:16.186Z,19.76
2023-05-14T16:39:19.813Z,19.70
2023-05-14T16:44:21.360Z,19.68
2023-05-14T16:49:22.853Z,19.68
2023-05-14T16:54:24.256Z,19.51
2023-05-14T16:59:27.178Z,19.50
2023-05-14T17:04:28.764Z,19.50
2023-05-14T17:09:31.436Z,19.52
2023-05-14T17:14:32.888Z,19.57
2023-05-14T17:19:34.354Z,19.39
2023-05-14T17:24:36.572Z,19.27
2023-05-14T17:29:38.109Z,19.32
2023-05-14T17:34:39.560Z,19.35
2023-05-14T17:39:40.982Z,19.30
2023-05-14T17:44:42.440Z,19.27
2023-05-14T17:49:43.895Z,19.19
2023-05-14T17:54:45.472Z,19.11
2023-05-14T17:59:46.897Z,19.12
2023-05-14T18:04:48.366Z,19.12
2023-05-14T18:09:49.890Z,19.07
2023-05-14T18:14:51.724Z,19.08
2023-05-14T18:19:53.232Z,19.08
2023-05-14T18:24:54.695Z,19.11
2023-05-14T18:29:56.171Z,19.14
2023-05-14T18:34:57.620Z,19.18
2023-05-14T18:39:59.065Z,19.18
2023-05-14T18:45:00.665Z,19.20
2023-05-14T18:50:03.008Z,19.16
2023-05-14T18:55:04.874Z,19.20
2023-05-14T19:00:07.226Z,19.18
2023-05-14T19:05:08.938Z,19.15
2023-05-14T19:10:10.894Z,19.03
2023-05-14T19:15:12.446Z,18.83
2023-05-14T19:20:14.014Z,18.37
2023-05-14T19:25:15.519Z,18.48
2023-05-14T19:30:17.781Z,18.40
2023-05-14T19:35:19.686Z,18.27
2023-05-14T19:40:21.105Z,18.31
2023-05-14T19:45:22.625Z,18.26
2023-05-14T19:50:24.182Z,17.81
2023-05-14T19:55:26.035Z,17.62
2023-05-14T20:00:27.981Z,17.55
2023-05-14T20:05:29.691Z,17.43
2023-05-14T20:10:31.192Z,17.34
2023-05-14T20:15:32.635Z,17.25
2023-05-14T20:20:34.219Z,17.19
2023-05-14T20:25:35.712Z,16.94
2023-05-14T20:30:37.351Z,16.61
2023-05-14T20:35:40.766Z,16.63
2023-05-14T20:40:42.220Z,16.68
2023-05-14T20:45:43.721Z,16.71
2023-05-14T20:50:45.125Z,16.76
2023-05-14T20:55:46.601Z,16.61
2023-05-14T21:00:48.065Z,16.45
2023-05-14T21:05:49.534Z,16.47
2023-05-14T21:10:50.969Z,16.49
2023-05-14T21:15:52.527Z,16.50
2023-05-14T21:20:53.959Z,16.54
2023-05-14T21:25:55.632Z,16.48
2023-05-14T21:30:57.192Z,16.27
2023-05-14T21:35:58.877Z,16.08
2023-05-14T21:41:00.674Z,15.77
2023-05-14T21:46:02.202Z,15.74
2023-05-14T21:51:03.844Z,15.68
2023-05-14T21:56:06.077Z,15.71
2023-05-14T22:01:09.045Z,15.69
2023-05-14T22:06:10.611Z,15.66
2023-05-14T22:11:12.085Z,15.73
2023-05-14T22:16:14.299Z,15.75
2023-05-14T22:21:15.974Z,15.71
2023-05-14T22:26:17.460Z,15.63
2023-05-14T22:31:18.974Z,15.55
2023-05-14T22:36:20.526Z,15.54
2023-05-14T22:41:22.120Z,15.59
2023-05-14T22:46:23.693Z,15.59
2023-05-14T22:51:25.520Z,15.52
2023-05-14T22:56:27.796Z,15.51
2023-05-14T23:01:30.091Z,15.53
2023-05-14T23:06:31.875Z,15.44
2023-05-14T23:11:33.347Z,15.36
2023-05-14T23:16:35.143Z,15.29
2023-05-14T23:21:36.548Z,15.34
2023-05-14T23:26:38.240Z,15.38
2023-05-14T23:31:41.028Z,15.39
2023-05-14T23:36:42.703Z,15.39
2023-05-14T23:41:44.206Z,15.42
2023-05-14T23:46:45.733Z,15.38
2023-05-14T23:51:47.216Z,15.38
2023-05-14T23:56:48.759Z,15.29
